createdAt,value
2017-11-25T00:00:16.698Z,2.80
2017-11-25T00:02:44.035Z,4.00
2017-11-25T00:05:11.429Z,3.07
2017-11-25T00:07:38.764Z,2.50
2017-11-25T00:10:06.152Z,2.17
2017-11-25T00:12:33.442Z,2.20
2017-11-25T00:15:00.786Z,4.07
2017-11-25T00:17:28.149Z,4.43
2017-11-25T00:19:55.508Z,2.97
2017-11-25T00:22:22.851Z,4.07
2017-11-25T00:24:50.206Z,3.50
2017-11-25T00:27:17.573Z,2.10
2017-11-25T00:29:44.913Z,2.20
2017-11-25T00:32:12.322Z,5.30
2017-11-25T00:34:39.662Z,3.07
2017-11-25T00:37:07.310Z,3.60
2017-11-25T00:39:34.665Z,2.23
2017-11-25T00:42:02.049Z,6.57
2017-11-25T00:44:29.401Z,3.40
2017-11-25T00:46:56.736Z,3.37
2017-11-25T00:49:24.122Z,2.33
2017-11-25T00:51:51.465Z,3.23
2017-11-25T00:54:19.106Z,2.23
2017-11-25T00:56:46.583Z,2.30
2017-11-25T00:59:13.910Z,4.00
2017-11-25T01:01:41.287Z,3.97
2017-11-25T01:04:08.646Z,2.20
2017-11-25T01:06:35.971Z,4.97
2017-11-25T01:09:03.315Z,4.30
2017-11-25T01:11:30.815Z,3.20
2017-11-25T01:13:58.164Z,3.23
2017-11-25T01:16:25.505Z,3.30
2017-11-25T01:18:52.866Z,2.00
2017-11-25T01:21:20.214Z,1.90
2017-11-25T01:23:47.710Z,2.47
2017-11-25T01:26:15.015Z,2.80
2017-11-25T01:28:42.384Z,4.53
2017-11-25T01:31:09.726Z,1.97
2017-11-25T01:33:37.068Z,2.77
2017-11-25T01:36:04.401Z,9.17
2017-11-25T01:38:31.761Z,3.00
2017-11-25T01:40:59.121Z,4.13
2017-11-25T01:43:26.461Z,5.73
2017-11-25T01:45:53.910Z,2.50
2017-11-25T01:48:21.265Z,2.33
2017-11-25T01:50:48.599Z,2.43
2017-11-25T01:53:15.930Z,4.27
2017-11-25T01:55:43.276Z,2.47
2017-11-25T01:58:10.883Z,2.30
2017-11-25T02:00:38.334Z,2.80
2017-11-25T02:03:05.699Z,2.90
2017-11-25T02:05:33.043Z,4.10
2017-11-25T02:08:00.404Z,2.40
2017-11-25T02:10:27.760Z,2.40
2017-11-25T02:12:55.091Z,2.20
2017-11-25T02:15:22.441Z,2.23
2017-11-25T02:17:49.805Z,3.63
2017-11-25T02:20:17.175Z,2.33
2017-11-25T02:22:44.668Z,2.00
2017-11-25T02:25:12.012Z,2.60
2017-11-25T02:27:39.431Z,2.37
2017-11-25T02:30:06.796Z,2.53
2017-11-25T02:32:34.130Z,2.60
2017-11-25T02:35:01.478Z,2.40
2017-11-25T02:37:28.828Z,3.13
2017-11-25T02:39:56.167Z,2.30
2017-11-25T02:42:23.517Z,2.80
2017-11-25T02:44:50.890Z,4.70
2017-11-25T02:47:18.289Z,3.10
2017-11-25T02:49:45.653Z,2.70
2017-11-25T02:52:13.009Z,3.47
2017-11-25T02:54:40.338Z,2.60
2017-11-25T02:57:07.696Z,2.47
2017-11-25T02:59:35.061Z,2.63
2017-11-25T03:02:02.394Z,3.03
2017-11-25T03:04:29.762Z,2.33
2017-11-25T03:06:57.086Z,2.27
2017-11-25T03:09:24.413Z,2.53
2017-11-25T03:11:51.806Z,2.60
2017-11-25T03:14:19.142Z,2.50
2017-11-25T03:16:46.521Z,2.43
2017-11-25T03:19:13.856Z,2.13
2017-11-25T03:21:41.223Z,2.40
2017-11-25T03:24:08.637Z,2.70
2017-11-25T03:26:36.033Z,3.47
2017-11-25T03:29:03.433Z,2.60
2017-11-25T03:31:30.770Z,2.70
2017-11-25T03:33:58.082Z,3.43
2017-11-25T03:36:25.443Z,2.67
2017-11-25T03:38:52.843Z,3.10
2017-11-25T03:41:20.189Z,2.63
2017-11-25T03:43:47.570Z,3.80
2017-11-25T03:46:14.895Z,2.60
2017-11-25T03:48:42.266Z,3.43
2017-11-25T03:51:09.591Z,2.60
2017-11-25T03:53:37.065Z,2.60
2017-11-25T03:56:04.403Z,2.70
2017-11-25T03:58:31.748Z,15.23
2017-11-25T04:00:59.097Z,2.77
2017-11-25T04:03:26.425Z,2.37
2017-11-25T04:05:53.771Z,2.70
2017-11-25T04:08:21.123Z,3.17
2017-11-25T04:10:48.495Z,2.67
2017-11-25T04:13:15.826Z,2.50
2017-11-25T04:15:43.250Z,7.37
2017-11-25T04:18:10.568Z,3.83
2017-11-25T04:20:37.948Z,2.20
2017-11-25T04:23:05.361Z,2.90
2017-11-25T04:25:32.723Z,2.50
2017-11-25T04:28:00.068Z,2.90
2017-11-25T04:30:27.408Z,2.03
2017-11-25T04:32:54.937Z,3.07
2017-11-25T04:35:22.259Z,2.40
2017-11-25T04:37:49.708Z,2.33
2017-11-25T04:40:17.074Z,3.00
2017-11-25T04:42:44.454Z,2.73
2017-11-25T04:45:11.788Z,2.50
2017-11-25T04:47:39.149Z,2.77
2017-11-25T04:50:06.472Z,2.03
2017-11-25T04:52:33.862Z,3.27
2017-11-25T04:55:01.182Z,3.60
2017-11-25T04:57:28.553Z,2.47
2017-11-25T04:59:55.941Z,3.00
2017-11-25T05:02:23.321Z,2.50
2017-11-25T05:04:50.650Z,3.20
2017-11-25T05:07:17.980Z,2.57
2017-11-25T05:09:45.332Z,2.43
2017-11-25T05:12:12.670Z,2.60
2017-11-25T05:14:40.061Z,2.97
2017-11-25T05:17:07.379Z,3.10
2017-11-25T05:19:34.729Z,3.10
2017-11-25T05:22:02.062Z,2.80
2017-11-25T05:24:29.708Z,2.53
2017-11-25T05:26:57.022Z,3.20
2017-11-25T05:29:24.358Z,2.90
2017-11-25T05:31:51.709Z,3.37
2017-11-25T05:34:19.075Z,2.70
2017-11-25T05:36:46.458Z,2.80
2017-11-25T05:39:13.797Z,2.73
2017-11-25T05:41:41.175Z,2.63
2017-11-25T05:44:08.491Z,2.40
2017-11-25T05:46:35.889Z,3.80
2017-11-25T05:49:03.241Z,2.83
2017-11-25T05:51:30.598Z,2.80
2017-11-25T05:53:57.890Z,3.20
2017-11-25T05:56:25.247Z,2.60
2017-11-25T05:58:52.599Z,3.07
2017-11-25T06:01:19.932Z,2.53
2017-11-25T06:03:47.296Z,2.60
2017-11-25T06:06:14.666Z,4.60
2017-11-25T06:08:42.000Z,2.57
2017-11-25T06:11:09.387Z,2.13
2017-11-25T06:13:36.840Z,2.60
2017-11-25T06:16:04.202Z,2.87
2017-11-25T06:18:31.553Z,2.47
2017-11-25T06:20:58.907Z,2.60
2017-11-25T06:23:26.244Z,2.83
2017-11-25T06:25:53.591Z,2.20
2017-11-25T06:28:20.932Z,2.43
2017-11-25T06:30:48.305Z,4.17
2017-11-25T06:33:15.634Z,2.33
2017-11-25T06:35:42.988Z,4.07
2017-11-25T06:38:10.319Z,2.40
2017-11-25T06:40:37.675Z,3.10
2017-11-25T06:43:05.009Z,2.47
2017-11-25T06:45:32.415Z,4.13
2017-11-25T06:47:59.769Z,2.47
2017-11-25T06:50:27.118Z,2.53
2017-11-25T06:52:54.469Z,7.73
2017-11-25T06:55:21.852Z,5.70
2017-11-25T06:57:49.224Z,2.27
2017-11-25T07:00:16.662Z,4.27
2017-11-25T07:02:44.010Z,2.60
2017-11-25T07:05:11.341Z,3.47
2017-11-25T07:07:38.776Z,5.83
2017-11-25T07:10:06.107Z,2.23
2017-11-25T07:12:33.678Z,4.10
2017-11-25T07:15:01.038Z,3.37
2017-11-25T07:17:28.381Z,2.40
2017-11-25T07:19:55.713Z,4.43
2017-11-25T07:22:23.062Z,2.43
2017-11-25T07:24:50.448Z,2.97
2017-11-25T07:27:17.787Z,3.17
2017-11-25T07:29:45.155Z,3.13
2017-11-25T07:32:12.493Z,2.40
2017-11-25T07:34:39.926Z,2.87
2017-11-25T07:37:07.261Z,3.20
2017-11-25T07:39:34.635Z,3.30
2017-11-25T07:42:01.969Z,1.70
2017-11-25T07:44:29.383Z,3.10
2017-11-25T07:46:56.770Z,7.10
2017-11-25T07:49:24.143Z,4.00
2017-11-25T07:51:52.316Z,2.90
2017-11-25T07:54:19.668Z,3.40
2017-11-25T07:56:47.047Z,2.00
2017-11-25T07:59:14.376Z,3.30
2017-11-25T08:01:41.742Z,3.90
2017-11-25T08:04:09.210Z,2.40
2017-11-25T08:09:53.501Z,6.97
2017-11-25T08:12:20.891Z,6.23
2017-11-25T08:14:48.470Z,7.27
2017-11-25T08:17:15.782Z,11.50
2017-11-25T08:19:43.150Z,9.40
2017-11-25T08:22:10.492Z,11.70
2017-11-25T08:24:37.851Z,4.30
2017-11-25T08:27:05.203Z,8.17
2017-11-25T08:29:32.673Z,3.93
2017-11-25T08:32:00.003Z,3.20
2017-11-25T08:34:27.476Z,6.03
2017-11-25T08:36:54.829Z,4.53
2017-11-25T08:39:22.241Z,3.40
2017-11-25T08:41:49.758Z,6.33
2017-11-25T08:44:17.137Z,2.80
2017-11-25T08:46:44.519Z,3.23
2017-11-25T08:49:11.875Z,7.13
2017-11-25T08:51:39.225Z,3.33
2017-11-25T08:54:06.579Z,3.67
2017-11-25T08:56:33.892Z,3.93
2017-11-25T08:59:01.226Z,2.63
2017-11-25T09:01:28.602Z,3.73
2017-11-25T09:03:55.979Z,5.87
2017-11-25T09:06:23.333Z,2.43
2017-11-25T09:08:50.690Z,6.03
2017-11-25T09:11:18.066Z,5.13
2017-11-25T09:13:45.417Z,1.90
2017-11-25T09:16:12.912Z,2.37
2017-11-25T09:18:40.354Z,4.43
2017-11-25T09:21:07.738Z,3.57
2017-11-25T09:23:35.203Z,3.20
2017-11-25T09:26:02.533Z,2.00
2017-11-25T09:28:29.875Z,3.63
2017-11-25T09:30:57.228Z,1.40
2017-11-25T09:33:24.581Z,2.67
2017-11-25T09:35:51.936Z,3.37
2017-11-25T09:38:19.332Z,2.53
2017-11-25T09:40:46.654Z,3.70
2017-11-25T09:43:14.011Z,2.00
2017-11-25T09:45:41.448Z,3.70
2017-11-25T09:48:08.801Z,2.47
2017-11-25T09:50:36.150Z,2.10
2017-11-25T09:53:03.574Z,5.87
2017-11-25T09:55:30.938Z,4.13
2017-11-25T09:57:58.294Z,1.90
2017-11-25T10:00:25.618Z,2.27
2017-11-25T10:02:53.096Z,4.70
2017-11-25T10:05:20.468Z,1.23
2017-11-25T10:07:47.810Z,7.00
2017-11-25T10:10:15.230Z,4.03
2017-11-25T10:12:42.562Z,3.13
2017-11-25T10:15:09.928Z,6.87
2017-11-25T10:17:37.609Z,2.10
2017-11-25T10:20:04.943Z,4.73
2017-11-25T10:22:32.277Z,3.57
2017-11-25T10:24:59.629Z,2.90
2017-11-25T10:27:26.967Z,3.03
2017-11-25T10:29:54.444Z,1.57
2017-11-25T10:32:21.798Z,1.50
2017-11-25T10:34:49.154Z,1.47
2017-11-25T10:37:16.505Z,4.53
2017-11-25T10:39:43.847Z,1.70
2017-11-25T12:26:38.644Z,5.30
2017-11-25T12:29:05.999Z,6.40
2017-11-25T12:31:33.977Z,10.33
2017-11-25T12:34:01.348Z,8.00
2017-11-25T12:36:28.689Z,10.10
2017-11-25T12:38:56.099Z,10.90
2017-11-25T12:41:23.415Z,9.23
2017-11-25T12:43:50.766Z,10.83
2017-11-25T12:46:18.139Z,10.33
2017-11-25T12:48:45.493Z,13.07
2017-11-25T12:51:12.981Z,7.63
2017-11-25T12:53:40.318Z,9.87
2017-11-25T12:56:07.684Z,6.70
2017-11-25T12:58:35.011Z,6.90
2017-11-25T13:01:02.363Z,6.33
2017-11-25T13:03:29.682Z,9.63
2017-11-25T13:05:57.044Z,5.40
2017-11-25T13:08:24.385Z,8.37
2017-11-25T13:10:51.749Z,7.87
2017-11-25T13:13:19.138Z,4.70
2017-11-25T13:15:46.486Z,4.00
2017-11-25T13:18:13.839Z,4.23
2017-11-25T13:20:41.166Z,2.27
2017-11-25T13:23:08.498Z,2.70
2017-11-25T13:25:35.934Z,2.17
2017-11-25T13:28:03.349Z,2.63
2017-11-25T13:30:30.695Z,2.10
2017-11-25T13:32:58.083Z,2.40
2017-11-25T13:35:25.430Z,2.23
2017-11-25T13:37:53.249Z,3.70
2017-11-25T13:40:20.637Z,1.90
2017-11-25T13:42:48.014Z,2.43
2017-11-25T13:45:15.433Z,2.33
2017-11-25T13:47:42.897Z,2.10
2017-11-25T13:50:10.270Z,2.10
2017-11-25T13:52:37.869Z,2.13
2017-11-25T13:55:05.195Z,2.10
2017-11-25T13:57:32.555Z,2.23
2017-11-25T13:59:59.979Z,2.60
2017-11-25T14:02:27.296Z,2.33
2017-11-25T14:04:54.684Z,2.70
2017-11-25T14:07:22.088Z,2.70
2017-11-25T14:09:49.482Z,2.53
2017-11-25T14:12:16.808Z,3.13
2017-11-25T14:14:44.189Z,4.20
2017-11-25T14:17:11.624Z,3.70
2017-11-25T14:19:38.991Z,3.43
2017-11-25T14:22:06.349Z,3.97
2017-11-25T14:24:33.936Z,2.97
2017-11-25T14:27:01.253Z,3.37
2017-11-25T14:29:28.621Z,4.13
2017-11-25T14:31:55.977Z,5.00
2017-11-25T14:34:23.340Z,5.87
2017-11-25T14:36:50.708Z,4.23
2017-11-25T14:39:18.142Z,5.67
2017-11-25T14:41:45.493Z,10.10
2017-11-25T14:44:12.901Z,4.93
2017-11-25T14:46:40.247Z,8.97
2017-11-25T14:49:07.758Z,6.00
2017-11-25T14:51:35.062Z,4.73
2017-11-25T14:54:02.451Z,5.07
2017-11-25T14:56:29.933Z,5.83
2017-11-25T14:58:57.577Z,9.87
2017-11-25T15:01:24.936Z,7.30
2017-11-25T15:03:52.344Z,7.77
2017-11-25T15:06:19.696Z,5.07
2017-11-25T15:08:46.993Z,5.90
2017-11-25T15:11:14.408Z,5.87
2017-11-25T15:13:41.809Z,4.63
2017-11-25T15:16:09.362Z,6.90
2017-11-25T15:18:36.707Z,5.43
2017-11-25T15:21:04.097Z,5.10
2017-11-25T15:23:31.508Z,13.50
2017-11-25T15:25:58.875Z,5.50
2017-11-25T15:28:26.235Z,5.50
2017-11-25T15:30:53.622Z,4.93
2017-11-25T15:33:20.987Z,5.23
2017-11-25T15:35:48.377Z,6.03
2017-11-25T15:38:15.743Z,7.00
2017-11-25T15:40:43.088Z,6.67
2017-11-25T15:43:10.472Z,4.77
2017-11-25T15:45:37.871Z,11.10
2017-11-25T15:48:05.253Z,10.20
2017-11-25T15:50:32.743Z,6.83
2017-11-25T15:53:00.140Z,7.43
2017-11-25T15:55:27.497Z,9.33
2017-11-25T15:57:54.849Z,8.97
2017-11-25T16:00:22.197Z,9.07
2017-11-25T16:02:49.720Z,10.40
2017-11-25T16:05:17.108Z,8.67
2017-11-25T16:07:44.529Z,9.63
2017-11-25T16:10:11.871Z,11.10
2017-11-25T16:12:39.218Z,9.40
2017-11-25T16:15:06.602Z,7.00
2017-11-25T16:17:33.988Z,9.47
2017-11-25T16:20:01.388Z,7.60
2017-11-25T16:22:28.717Z,10.10
2017-11-25T16:24:56.248Z,7.33
2017-11-25T16:27:23.618Z,15.03
2017-11-25T16:29:50.997Z,12.80
2017-11-25T16:32:18.333Z,10.53
2017-11-25T16:34:45.682Z,13.13
2017-11-25T16:37:13.095Z,9.07
2017-11-25T16:39:40.461Z,11.83
2017-11-25T16:42:07.927Z,9.83
2017-11-25T16:44:35.293Z,6.40
2017-11-25T16:47:02.678Z,8.70
2017-11-25T16:49:30.068Z,7.13
2017-11-25T16:51:57.439Z,12.10
2017-11-25T16:54:24.819Z,7.27
2017-11-25T16:56:52.463Z,7.50
2017-11-25T16:59:20.044Z,7.40
2017-11-25T17:01:47.397Z,7.63
2017-11-25T17:04:14.766Z,8.47
2017-11-25T17:06:42.276Z,7.30
2017-11-25T17:09:09.595Z,9.07
2017-11-25T17:11:36.920Z,12.43
2017-11-25T17:14:04.337Z,8.03
2017-11-25T17:16:31.682Z,14.23
2017-11-25T17:18:59.064Z,11.07
2017-11-25T17:21:26.396Z,8.60
2017-11-25T20:53:24.325Z,10.57
2017-11-25T20:55:51.817Z,13.70
2017-11-25T20:58:19.161Z,20.70
2017-11-25T21:00:46.621Z,13.97
2017-11-25T21:03:13.974Z,12.20
2017-11-25T21:05:41.381Z,22.00
2017-11-25T21:08:08.742Z,17.17
2017-11-25T21:10:36.146Z,12.73
2017-11-25T21:13:03.644Z,16.43
2017-11-25T21:15:31.010Z,9.10
2017-11-25T21:17:58.376Z,11.33
2017-11-25T21:20:25.781Z,15.57
2017-11-25T21:22:53.168Z,14.83
2017-11-25T21:25:20.612Z,9.40
2017-11-25T21:27:48.050Z,8.53
2017-11-25T21:30:15.393Z,8.53
2017-11-25T21:32:42.858Z,5.47
2017-11-25T21:35:10.211Z,8.90
2017-11-25T21:37:37.716Z,6.63
2017-11-25T21:40:05.206Z,11.10
2017-11-25T21:42:32.564Z,14.73
2017-11-25T21:44:59.931Z,10.13
2017-11-25T21:47:27.290Z,16.87
2017-11-25T21:49:54.695Z,15.03
2017-11-25T21:52:22.151Z,14.57
2017-11-25T21:54:49.660Z,12.17
2017-11-25T21:57:17.148Z,11.80
2017-11-25T21:59:44.567Z,6.97
2017-11-25T22:02:11.999Z,7.23
2017-11-25T22:04:41.477Z,5.23
2017-11-25T22:07:09.025Z,4.63
2017-11-25T22:09:36.770Z,3.97
2017-11-25T22:12:04.133Z,5.83
2017-11-25T22:14:31.566Z,5.17
2017-11-25T22:16:58.986Z,5.17
2017-11-25T22:19:26.425Z,5.63
2017-11-25T22:21:53.763Z,8.27
2017-11-25T22:24:21.266Z,14.63
2017-11-25T22:26:48.656Z,7.23
2017-11-25T22:29:16.058Z,8.13
2017-11-25T22:31:43.445Z,6.40
2017-11-25T22:34:10.788Z,6.80
2017-11-25T22:36:38.166Z,7.67
2017-11-25T22:39:05.522Z,9.97
2017-11-25T22:41:32.940Z,5.47
2017-11-25T22:44:00.264Z,7.57
2017-11-25T22:46:27.675Z,11.63
2017-11-25T22:48:55.030Z,11.53
2017-11-25T22:51:22.471Z,10.73
2017-11-25T22:53:49.842Z,19.03
2017-11-25T22:56:17.221Z,15.10
2017-11-25T22:58:44.571Z,16.83
2017-11-25T23:01:11.958Z,26.50
2017-11-25T23:03:39.309Z,21.03
2017-11-25T23:06:10.703Z,23.60
2017-11-25T23:08:38.066Z,10.70
2017-11-25T23:11:05.440Z,7.77
2017-11-25T23:13:32.820Z,6.90
2017-11-25T23:16:00.221Z,9.40
2017-11-25T23:18:27.600Z,8.37
2017-11-25T23:20:55.003Z,11.63
2017-11-25T23:23:22.371Z,10.40
2017-11-25T23:25:49.743Z,9.53
2017-11-25T23:28:17.080Z,5.57
2017-11-25T23:30:44.436Z,7.43
2017-11-25T23:33:11.794Z,7.13
2017-11-25T23:35:39.193Z,8.63
2017-11-25T23:38:06.626Z,9.10
2017-11-25T23:40:33.982Z,5.70
2017-11-25T23:43:01.512Z,7.50
2017-11-25T23:45:28.966Z,5.93
2017-11-25T23:47:56.479Z,4.07
2017-11-25T23:50:23.831Z,5.87
2017-11-25T23:52:51.168Z,8.17
2017-11-25T23:55:18.573Z,7.37
2017-11-25T23:57:45.930Z,11.20
